createdAt,value
2018-09-04T00:00:05.079Z,16.43
2018-09-04T00:02:32.755Z,18.00
2018-09-04T00:05:00.455Z,16.47
2018-09-04T00:07:28.056Z,16.93
2018-09-04T00:09:55.765Z,16.77
2018-09-04T00:12:23.398Z,17.00
2018-09-04T00:14:51.046Z,17.93
2018-09-04T00:17:18.729Z,16.93
2018-09-04T00:19:46.331Z,16.70
2018-09-04T00:22:13.992Z,16.63
2018-09-04T00:24:41.629Z,17.27
2018-09-04T00:27:09.242Z,16.57
2018-09-04T00:29:36.807Z,17.27
2018-09-04T00:32:04.471Z,17.07
2018-09-04T00:34:32.188Z,18.00
2018-09-04T00:36:59.719Z,17.73
2018-09-04T00:39:27.369Z,16.73
2018-09-04T00:41:54.973Z,17.67
2018-09-04T00:44:22.560Z,18.00
2018-09-04T00:46:50.231Z,18.23
2018-09-04T00:49:18.010Z,19.37
2018-09-04T00:51:45.621Z,18.80
2018-09-04T00:54:13.282Z,19.20
2018-09-04T00:56:40.928Z,18.95
2018-09-04T00:59:08.750Z,20.10
2018-09-04T01:01:36.487Z,18.53
2018-09-04T01:04:04.106Z,18.47
2018-09-04T01:06:31.871Z,18.73
2018-09-04T01:08:59.506Z,18.37
2018-09-04T01:11:27.174Z,18.62
2018-09-04T01:13:54.801Z,17.60
2018-09-04T01:16:22.508Z,17.80
2018-09-04T01:18:50.118Z,16.93
2018-09-04T01:21:17.763Z,18.23
2018-09-04T01:23:45.508Z,18.23
2018-09-04T01:26:13.427Z,18.50
2018-09-04T01:28:41.115Z,19.43
2018-09-04T01:31:08.778Z,18.53
2018-09-04T01:33:36.402Z,21.05
2018-09-04T01:36:04.157Z,24.23
2018-09-04T01:38:31.821Z,23.20
2018-09-04T01:40:59.447Z,24.03
2018-09-04T01:43:27.054Z,27.93
2018-09-04T01:45:54.708Z,27.93
2018-09-04T01:48:22.322Z,37.90
2018-09-04T01:50:49.924Z,31.23
2018-09-04T01:53:17.608Z,29.23
2018-09-04T01:55:45.241Z,31.57
2018-09-04T01:58:12.887Z,31.17
2018-09-04T02:00:40.567Z,33.00
2018-09-04T02:03:08.211Z,32.23
2018-09-04T02:05:35.844Z,33.73
2018-09-04T02:08:03.556Z,30.60
2018-09-04T02:10:31.195Z,30.77
2018-09-04T02:12:58.872Z,33.37
2018-09-04T02:15:26.734Z,33.43
2018-09-04T02:17:54.493Z,32.50
2018-09-04T02:20:22.155Z,34.43
2018-09-04T02:22:49.948Z,33.45
2018-09-04T02:25:17.556Z,35.33
2018-09-04T02:27:45.186Z,35.13
2018-09-04T02:30:12.848Z,35.97
2018-09-04T02:32:40.470Z,34.70
2018-09-04T02:35:08.135Z,36.20
2018-09-04T02:37:35.814Z,37.23
2018-09-04T02:40:03.544Z,38.13
2018-09-04T02:42:31.189Z,36.95
2018-09-04T02:44:58.820Z,36.85
2018-09-04T02:47:26.411Z,36.00
2018-09-04T02:49:54.016Z,37.27
2018-09-04T02:52:21.721Z,38.20
2018-09-04T02:54:49.326Z,36.93
2018-09-04T02:57:16.935Z,38.43
2018-09-04T02:59:44.595Z,36.97
2018-09-04T03:02:12.298Z,36.80
2018-09-04T03:04:39.964Z,38.87
2018-09-04T03:07:07.613Z,39.33
2018-09-04T03:09:35.240Z,41.57
2018-09-04T03:12:02.862Z,41.43
2018-09-04T03:14:30.546Z,42.15
2018-09-04T03:16:58.233Z,43.17
2018-09-04T03:19:25.871Z,44.60
2018-09-04T03:21:53.490Z,44.43
2018-09-04T03:24:21.124Z,42.78
2018-09-04T03:26:48.756Z,42.70
2018-09-04T03:29:16.398Z,44.57
2018-09-04T03:31:44.008Z,46.23
2018-09-04T03:34:11.627Z,46.50
2018-09-04T03:36:39.332Z,43.50
2018-09-04T03:39:08.314Z,44.70
2018-09-04T03:41:35.975Z,48.37
2018-09-04T03:44:03.685Z,44.60
2018-09-04T03:46:31.297Z,47.58
2018-09-04T03:48:58.943Z,43.90
2018-09-04T03:51:26.575Z,46.67
2018-09-04T03:53:54.171Z,45.37
2018-09-04T03:56:21.769Z,46.63
2018-09-04T03:58:49.441Z,44.58
2018-09-04T04:01:17.099Z,46.20
2018-09-04T04:03:44.696Z,44.77
2018-09-04T04:06:12.354Z,46.47
2018-09-04T04:08:39.978Z,46.90
2018-09-04T04:11:07.623Z,43.93
2018-09-04T04:13:35.288Z,46.63
2018-09-04T04:16:02.937Z,45.40
2018-09-04T04:18:30.555Z,45.73
2018-09-04T04:20:59.100Z,50.37
2018-09-04T04:23:27.752Z,44.43
2018-09-04T04:25:56.225Z,42.73
2018-09-04T04:28:24.325Z,43.00
2018-09-04T04:30:51.956Z,44.27
2018-09-04T04:33:19.911Z,45.07
2018-09-04T04:35:47.669Z,43.30
2018-09-04T04:38:15.305Z,42.75
2018-09-04T04:40:42.959Z,44.40
2018-09-04T04:43:10.816Z,44.60
2018-09-04T04:45:38.735Z,42.17
2018-09-04T04:48:06.422Z,44.40
2018-09-04T04:50:34.054Z,49.00
2018-09-04T04:53:01.711Z,45.23
2018-09-04T04:55:29.394Z,47.98
2018-09-04T04:57:57.157Z,44.13
2018-09-04T05:00:24.870Z,45.20
2018-09-04T05:02:52.488Z,43.83
2018-09-04T05:05:20.165Z,45.23
2018-09-04T05:07:47.845Z,45.07
2018-09-04T05:10:15.476Z,45.40
2018-09-04T05:12:43.218Z,45.37
2018-09-04T05:15:10.869Z,44.13
2018-09-04T05:17:38.482Z,44.67
2018-09-04T05:20:07.329Z,44.73
2018-09-04T05:22:35.043Z,44.77
2018-09-04T05:25:02.684Z,58.37
2018-09-04T05:27:30.333Z,44.73
2018-09-04T05:29:57.976Z,43.07
2018-09-04T05:32:42.865Z,42.73
2018-09-04T05:35:12.208Z,42.47
2018-09-04T05:37:40.498Z,44.87
2018-09-04T05:40:08.216Z,44.47
2018-09-04T05:42:39.181Z,44.73
2018-09-04T05:45:07.430Z,43.63
2018-09-04T05:47:36.895Z,42.67
2018-09-04T05:50:05.837Z,44.67
2018-09-04T05:52:33.484Z,46.30
2018-09-04T05:55:01.125Z,43.87
2018-09-04T05:57:28.840Z,43.23
2018-09-04T05:59:56.643Z,43.97
2018-09-04T06:02:24.368Z,43.00
2018-09-04T06:04:52.011Z,44.17
2018-09-04T06:07:19.669Z,41.13
2018-09-04T06:09:47.307Z,40.77
2018-09-04T06:12:15.991Z,42.67
2018-09-04T06:14:43.659Z,41.07
2018-09-04T06:17:11.328Z,39.53
2018-09-04T06:19:38.964Z,40.87
2018-09-04T06:22:06.644Z,40.83
2018-09-04T06:24:34.291Z,39.23
2018-09-04T06:27:02.013Z,40.37
2018-09-04T06:29:29.794Z,38.73
2018-09-04T06:31:57.479Z,49.93
2018-09-04T06:34:25.169Z,44.97
2018-09-04T06:36:52.986Z,37.50
2018-09-04T06:39:21.109Z,35.93
2018-09-04T06:41:48.842Z,35.53
2018-09-04T06:44:16.527Z,38.13
2018-09-04T06:46:44.169Z,34.70
2018-09-04T06:49:11.834Z,38.10
2018-09-04T06:51:39.556Z,38.20
2018-09-04T06:54:07.205Z,36.58
2018-09-04T06:56:34.907Z,40.20
2018-09-04T06:59:02.593Z,40.60
2018-09-04T07:01:30.267Z,37.60
2018-09-04T07:03:57.902Z,37.00
2018-09-04T07:06:25.605Z,36.30
2018-09-04T07:08:53.259Z,38.08
2018-09-04T07:11:20.885Z,36.07
2018-09-04T07:13:48.596Z,36.00
2018-09-04T07:16:16.308Z,36.70
2018-09-04T07:18:43.984Z,37.17
2018-09-04T07:21:11.618Z,35.83
2018-09-04T07:23:39.300Z,36.33
2018-09-04T07:26:06.982Z,36.37
2018-09-04T07:28:34.668Z,36.65
2018-09-04T07:31:02.395Z,34.65
2018-09-04T07:33:30.167Z,36.03
2018-09-04T07:35:57.955Z,36.43
2018-09-04T07:38:25.644Z,34.87
2018-09-04T07:40:53.285Z,33.80
2018-09-04T07:43:20.984Z,36.43
2018-09-04T07:45:48.618Z,34.08
2018-09-04T07:48:16.273Z,34.45
2018-09-04T07:50:43.965Z,34.63
2018-09-04T07:53:11.700Z,35.17
2018-09-04T07:55:39.350Z,35.30
2018-09-04T07:58:07.031Z,34.27
2018-09-04T08:00:34.727Z,33.95
2018-09-04T08:03:02.377Z,34.73
2018-09-04T08:05:30.081Z,35.77
2018-09-04T08:07:57.851Z,35.13
2018-09-04T08:10:25.547Z,36.00
2018-09-04T08:12:53.264Z,38.33
2018-09-04T08:15:21.050Z,35.03
2018-09-04T08:17:48.694Z,36.03
2018-09-04T08:20:16.421Z,36.40
2018-09-04T08:22:44.110Z,35.03
2018-09-04T08:25:11.740Z,36.53
2018-09-04T08:27:39.437Z,34.50
2018-09-04T08:30:07.216Z,35.10
2018-09-04T08:32:34.856Z,35.13
2018-09-04T08:35:02.555Z,34.57
2018-09-04T08:37:30.226Z,33.30
2018-09-04T08:39:57.899Z,33.80
2018-09-04T08:42:25.560Z,32.77
2018-09-04T08:44:53.260Z,32.43
2018-09-04T08:47:21.334Z,33.08
2018-09-04T08:49:49.102Z,31.90
2018-09-04T08:52:16.757Z,35.70
2018-09-04T08:54:44.495Z,33.40
2018-09-04T08:57:12.260Z,33.07
2018-09-04T08:59:39.920Z,32.63
2018-09-04T09:02:07.539Z,35.03
2018-09-04T09:04:35.290Z,32.77
2018-09-04T09:07:02.946Z,32.20
2018-09-04T09:09:30.580Z,33.00
2018-09-04T09:11:58.244Z,32.97
2018-09-04T09:14:25.919Z,32.67
2018-09-04T09:16:53.558Z,32.60
2018-09-04T09:19:21.265Z,34.73
2018-09-04T09:21:48.974Z,32.88
2018-09-04T09:24:16.607Z,31.33
2018-09-04T09:26:44.298Z,30.17
2018-09-04T09:29:11.971Z,30.02
2018-09-04T09:31:39.662Z,30.17
2018-09-04T09:34:07.342Z,30.27
2018-09-04T09:36:35.040Z,33.20
2018-09-04T09:39:03.011Z,33.57
2018-09-04T09:41:30.731Z,32.53
2018-09-04T09:43:58.498Z,31.03
2018-09-04T09:46:26.136Z,31.00
2018-09-04T09:48:53.813Z,30.52
2018-09-04T09:51:21.468Z,28.90
2018-09-04T09:53:49.112Z,28.30
2018-09-04T09:56:16.855Z,27.50
2018-09-04T09:58:44.518Z,27.27
2018-09-04T10:01:17.708Z,25.50
2018-09-04T10:03:50.918Z,27.33
2018-09-04T10:06:19.496Z,25.07
2018-09-04T10:08:47.196Z,24.10
2018-09-04T10:11:14.857Z,25.20
2018-09-04T10:13:42.586Z,24.02
2018-09-04T10:16:10.254Z,22.70
2018-09-04T10:18:37.928Z,21.60
2018-09-04T10:21:05.819Z,19.90
2018-09-04T10:23:33.628Z,21.30
2018-09-04T10:26:01.377Z,19.77
2018-09-04T10:28:29.136Z,19.50
2018-09-04T10:30:56.780Z,19.10
2018-09-04T10:33:24.409Z,20.08
2018-09-04T10:35:52.113Z,18.33
2018-09-04T10:38:23.519Z,17.70
2018-09-04T10:40:52.916Z,19.60
2018-09-04T10:43:20.659Z,17.80
2018-09-04T10:45:53.940Z,17.60
2018-09-04T10:48:25.547Z,14.53
2018-09-04T10:50:53.441Z,18.73
2018-09-04T10:53:21.099Z,17.77
2018-09-04T10:55:48.875Z,17.63
2018-09-04T10:58:16.512Z,16.85
2018-09-04T11:00:44.166Z,17.70
2018-09-04T11:03:11.875Z,17.43
2018-09-04T11:05:39.649Z,18.53
2018-09-04T11:08:07.370Z,17.80
2018-09-04T11:10:35.100Z,17.70
2018-09-04T11:13:02.834Z,16.30
2018-09-04T11:15:30.516Z,16.70
2018-09-04T11:17:58.285Z,15.20
2018-09-04T11:20:26.035Z,16.33
2018-09-04T11:22:53.863Z,14.93
2018-09-04T11:25:21.589Z,14.90
2018-09-04T11:27:49.337Z,14.30
2018-09-04T11:30:17.025Z,13.77
2018-09-04T11:32:44.672Z,13.20
2018-09-04T11:35:12.489Z,11.97
2018-09-04T11:37:40.256Z,13.30
2018-09-04T11:40:08.759Z,12.98
2018-09-04T11:42:36.675Z,13.47
2018-09-04T11:45:05.230Z,13.53
2018-09-04T11:47:32.929Z,13.00
2018-09-04T11:50:00.632Z,12.63
2018-09-04T11:52:28.431Z,14.47
2018-09-04T11:54:56.043Z,12.03
2018-09-04T11:57:23.778Z,12.50
2018-09-04T11:59:51.556Z,12.37
2018-09-04T12:02:22.823Z,12.70
2018-09-04T12:04:50.492Z,11.43
2018-09-04T12:07:18.201Z,12.70
2018-09-04T12:09:45.855Z,12.40
2018-09-04T12:12:19.177Z,10.97
2018-09-04T12:14:46.802Z,12.53
2018-09-04T12:17:14.556Z,12.00
2018-09-04T12:20:52.716Z,12.58
2018-09-04T12:23:20.315Z,12.67
2018-09-04T12:25:49.468Z,13.00
2018-09-04T12:28:17.144Z,12.17
2018-09-04T12:30:44.828Z,12.40
2018-09-04T12:33:12.461Z,14.38
2018-09-04T12:35:40.137Z,13.60
2018-09-04T12:38:11.381Z,12.90
2018-09-04T12:40:39.126Z,12.30
2018-09-04T12:43:06.782Z,11.77
2018-09-04T12:45:39.964Z,11.95
2018-09-04T12:48:07.749Z,11.93
2018-09-04T12:50:35.924Z,11.53
2018-09-04T12:53:03.598Z,11.30
2018-09-04T12:55:31.323Z,10.80
2018-09-04T12:57:58.968Z,10.68
2018-09-04T13:00:26.591Z,12.67
2018-09-04T13:02:54.262Z,12.67
2018-09-04T13:05:21.871Z,11.27
2018-09-04T13:07:49.491Z,9.47
2018-09-04T13:10:17.132Z,10.32
2018-09-04T13:12:44.741Z,10.73
2018-09-04T13:15:12.881Z,10.50
2018-09-04T13:17:40.570Z,10.00
2018-09-04T13:20:08.199Z,10.43
2018-09-04T13:22:35.813Z,9.57
2018-09-04T13:25:03.558Z,9.67
2018-09-04T13:27:31.297Z,9.90
2018-09-04T13:29:58.960Z,10.10
2018-09-04T13:32:26.618Z,9.03
2018-09-04T13:34:54.233Z,10.03
2018-09-04T13:37:22.912Z,9.50
2018-09-04T13:39:55.525Z,11.17
2018-09-04T13:42:23.148Z,9.87
2018-09-04T13:44:53.683Z,10.00
2018-09-04T13:47:22.169Z,10.90
2018-09-04T13:49:49.815Z,10.03
2018-09-04T13:52:17.441Z,11.47
2018-09-04T13:54:45.091Z,9.47
2018-09-04T13:57:12.710Z,9.50
2018-09-04T13:59:40.329Z,9.07
2018-09-04T14:02:08.049Z,9.67
2018-09-04T14:04:35.646Z,9.73
2018-09-04T14:07:03.324Z,8.73
2018-09-04T14:09:31.011Z,9.10
2018-09-04T14:11:58.693Z,10.03
2018-09-04T14:14:26.317Z,9.37
2018-09-04T14:16:54.094Z,9.67
2018-09-04T14:19:21.647Z,9.13
2018-09-04T14:21:49.613Z,8.27
2018-09-04T14:24:17.276Z,9.27
2018-09-04T14:26:44.878Z,9.33
2018-09-04T14:29:53.155Z,8.77
2018-09-04T14:31:40.180Z,9.73
2018-09-04T14:34:07.818Z,9.97
2018-09-04T14:36:36.088Z,9.60
2018-09-04T14:39:04.280Z,8.70
2018-09-04T14:41:32.038Z,8.23
2018-09-04T14:43:59.656Z,8.65
2018-09-04T14:46:27.329Z,8.83
2018-09-04T14:48:55.029Z,8.73
2018-09-04T14:51:22.652Z,8.80
2018-09-04T14:53:50.385Z,8.93
2018-09-04T14:56:18.021Z,8.17
2018-09-04T14:58:45.640Z,8.28
2018-09-04T15:01:13.282Z,8.17
2018-09-04T15:03:40.904Z,8.13
2018-09-04T15:06:08.544Z,7.60
2018-09-04T15:08:36.218Z,8.15
2018-09-04T15:11:03.845Z,14.63
2018-09-04T15:13:31.490Z,9.10
2018-09-04T15:15:59.138Z,7.95
2018-09-04T15:18:26.773Z,8.03
2018-09-04T15:20:54.424Z,7.20
2018-09-04T15:23:22.076Z,8.03
2018-09-04T15:25:49.688Z,7.23
2018-09-04T15:28:17.310Z,6.95
2018-09-04T15:30:44.981Z,7.50
2018-09-04T15:33:12.586Z,7.80
2018-09-04T15:35:40.199Z,7.70
2018-09-04T15:38:07.848Z,7.35
2018-09-04T15:40:35.473Z,8.20
2018-09-04T15:43:03.105Z,7.30
2018-09-04T15:45:30.921Z,7.90
2018-09-04T15:47:58.532Z,7.78
2018-09-04T15:50:26.148Z,7.87
2018-09-04T15:52:53.793Z,7.40
2018-09-04T15:55:21.372Z,8.73
2018-09-04T15:57:49.021Z,8.20
2018-09-04T16:00:16.740Z,8.70
2018-09-04T16:02:44.358Z,8.53
2018-09-04T16:05:11.976Z,9.33
2018-09-04T16:07:39.637Z,8.83
2018-09-04T16:10:07.443Z,14.75
2018-09-04T16:12:34.959Z,12.03
2018-09-04T16:15:02.647Z,10.20
2018-09-04T16:17:30.400Z,9.00
2018-09-04T16:19:58.016Z,8.83
2018-09-04T16:22:25.796Z,8.20
2018-09-04T16:24:53.465Z,8.67
2018-09-04T16:27:21.107Z,115.17
2018-09-04T16:29:48.817Z,19.60
2018-09-04T16:32:16.524Z,11.00
2018-09-04T16:34:44.192Z,9.10
2018-09-04T16:37:11.832Z,8.83
2018-09-04T16:39:39.469Z,9.10
2018-09-04T16:42:07.092Z,8.53
2018-09-04T16:44:34.885Z,9.03
2018-09-04T16:47:02.505Z,9.05
2018-09-04T16:49:30.122Z,9.33
2018-09-04T16:51:59.068Z,8.93
2018-09-04T16:54:27.418Z,9.07
2018-09-04T16:56:55.063Z,8.13
2018-09-04T16:59:22.812Z,8.60
2018-09-04T17:01:50.440Z,8.90
2018-09-04T17:04:18.064Z,8.77
2018-09-04T17:06:46.167Z,9.13
2018-09-04T17:09:13.781Z,9.48
2018-09-04T17:11:41.417Z,9.23
2018-09-04T17:14:09.100Z,8.77
2018-09-04T17:16:36.721Z,8.50
2018-09-04T17:19:04.548Z,9.43
2018-09-04T17:21:32.216Z,9.78
2018-09-04T17:23:59.835Z,9.23
2018-09-04T17:26:27.467Z,8.90
2018-09-04T17:28:55.142Z,8.63
2018-09-04T17:31:22.812Z,9.30
2018-09-04T17:33:50.556Z,9.70
2018-09-04T17:36:18.229Z,9.33
2018-09-04T17:38:45.970Z,10.00
2018-09-04T17:41:13.621Z,8.88
2018-09-04T17:43:41.305Z,9.45
2018-09-04T17:46:08.921Z,9.93
2018-09-04T17:48:36.560Z,10.00
2018-09-04T17:51:04.368Z,9.40
2018-09-04T17:53:32.289Z,8.57
2018-09-04T17:55:59.900Z,9.67
2018-09-04T17:58:27.602Z,9.95
2018-09-04T18:00:55.274Z,10.18
2018-09-04T18:03:23.029Z,9.37
2018-09-04T18:05:50.732Z,9.67
2018-09-04T18:08:18.329Z,9.57
2018-09-04T18:10:46.006Z,10.30
2018-09-04T18:13:13.668Z,10.10
2018-09-04T18:15:41.309Z,11.43
2018-09-04T18:18:08.913Z,11.00
2018-09-04T18:20:36.577Z,11.22
2018-09-04T18:23:04.248Z,11.17
2018-09-04T18:25:31.875Z,10.90
2018-09-04T18:27:59.568Z,10.67
2018-09-04T18:30:28.851Z,10.57
2018-09-04T18:32:56.460Z,10.30
2018-09-04T18:35:24.117Z,10.32
2018-09-04T18:37:51.736Z,11.12
2018-09-04T18:40:19.383Z,11.27
2018-09-04T18:42:47.040Z,10.30
2018-09-04T18:45:50.328Z,11.47
2018-09-04T18:48:18.372Z,11.57
2018-09-04T18:50:46.026Z,11.07
2018-09-04T18:53:13.669Z,10.60
2018-09-04T18:55:41.344Z,11.08
2018-09-04T18:58:09.671Z,10.00
2018-09-04T19:00:37.373Z,10.57
2018-09-04T19:03:05.425Z,9.25
2018-09-04T19:05:33.252Z,10.17
2018-09-04T19:08:00.998Z,9.77
2018-09-04T19:10:28.858Z,9.83
2018-09-04T19:12:56.512Z,10.27
2018-09-04T19:15:24.160Z,10.85
2018-09-04T19:17:51.833Z,11.37
2018-09-04T19:20:19.567Z,10.67
2018-09-04T19:22:47.149Z,10.80
2018-09-04T19:25:14.950Z,11.23
2018-09-04T19:27:42.582Z,11.65
2018-09-04T19:30:10.233Z,10.93
2018-09-04T19:32:37.898Z,11.77
2018-09-04T19:35:05.511Z,12.13
2018-09-04T19:37:33.152Z,11.53
2018-09-04T19:40:00.861Z,11.97
2018-09-04T19:42:28.487Z,12.50
2018-09-04T19:44:56.143Z,12.67
2018-09-04T19:47:23.819Z,12.05
2018-09-04T19:49:51.566Z,11.87
2018-09-04T19:52:19.171Z,12.43
2018-09-04T19:54:46.954Z,10.67
2018-09-04T19:57:14.581Z,11.10
2018-09-04T19:59:42.209Z,10.60
2018-09-04T20:02:09.928Z,10.43
2018-09-04T20:04:37.591Z,10.63
2018-09-04T20:07:05.691Z,11.40
2018-09-04T20:09:33.362Z,10.78
2018-09-04T20:12:00.990Z,11.33
2018-09-04T20:14:28.612Z,11.07
2018-09-04T20:16:56.290Z,11.20
2018-09-04T20:19:23.947Z,10.35
2018-09-04T20:21:51.628Z,10.90
2018-09-04T20:24:19.330Z,11.43
2018-09-04T20:26:46.981Z,12.30
2018-09-04T20:29:14.617Z,10.87
2018-09-04T20:31:42.332Z,11.23
2018-09-04T20:34:09.966Z,10.93
2018-09-04T20:36:37.590Z,10.77
2018-09-04T20:39:06.030Z,11.57
2018-09-04T20:41:33.753Z,10.93
2018-09-04T20:44:01.501Z,10.80
2018-09-04T20:46:29.293Z,11.30
2018-09-04T20:48:57.023Z,10.77
2018-09-04T20:51:24.700Z,10.27
2018-09-04T20:53:52.436Z,10.50
2018-09-04T20:56:20.048Z,11.20
2018-09-04T20:58:58.774Z,10.73
2018-09-04T21:01:37.775Z,10.93
2018-09-04T21:04:16.712Z,10.50
2018-09-04T21:06:44.672Z,9.90
2018-09-04T21:09:28.172Z,11.20
2018-09-04T21:11:55.835Z,10.67
2018-09-04T21:14:23.672Z,11.40
2018-09-04T21:16:52.065Z,11.37
2018-09-04T21:19:19.659Z,11.20
2018-09-04T21:21:47.292Z,10.05
2018-09-04T21:24:15.127Z,11.05
2018-09-04T21:26:42.732Z,11.12
2018-09-04T21:29:10.451Z,10.87
2018-09-04T21:31:38.154Z,10.87
2018-09-04T21:34:05.879Z,11.57
2018-09-04T21:36:33.525Z,11.73
2018-09-04T21:39:01.269Z,11.68
2018-09-04T21:41:28.935Z,12.63
2018-09-04T21:43:56.663Z,13.30
2018-09-04T21:46:24.319Z,13.00
2018-09-04T21:48:52.027Z,12.10
2018-09-04T21:51:19.679Z,12.33
2018-09-04T21:53:47.333Z,12.70
2018-09-04T21:56:14.986Z,12.30
2018-09-04T21:58:42.631Z,11.83
2018-09-04T22:01:10.345Z,11.75
2018-09-04T22:03:38.027Z,11.80
2018-09-04T22:06:05.793Z,11.57
2018-09-04T22:08:33.537Z,12.17
2018-09-04T22:11:01.187Z,12.27
2018-09-04T22:13:28.828Z,11.63
2018-09-04T22:15:56.544Z,11.25
2018-09-04T22:18:24.263Z,12.05
2018-09-04T22:20:51.905Z,12.13
2018-09-04T22:23:19.563Z,11.10
2018-09-04T22:25:47.182Z,11.03
2018-09-04T22:28:14.864Z,11.70
2018-09-04T22:30:42.547Z,11.37
2018-09-04T22:33:10.201Z,11.87
2018-09-04T22:35:37.846Z,10.80
2018-09-04T22:38:05.516Z,12.03
2018-09-04T22:40:33.143Z,11.37
2018-09-04T22:43:00.767Z,11.37
2018-09-04T22:45:28.484Z,11.08
2018-09-04T22:47:56.899Z,11.88
2018-09-04T22:50:30.153Z,11.97
2018-09-04T22:52:57.743Z,11.60
2018-09-04T22:55:25.383Z,12.28
2018-09-04T22:57:53.046Z,10.70
2018-09-04T23:00:20.741Z,11.07
2018-09-04T23:02:48.410Z,12.10
2018-09-04T23:05:16.073Z,11.27
2018-09-04T23:07:43.682Z,11.83
2018-09-04T23:10:11.327Z,11.63
2018-09-04T23:12:39.026Z,11.27
2018-09-04T23:15:06.754Z,11.20
2018-09-04T23:17:34.403Z,11.73
2018-09-04T23:20:41.100Z,11.40
2018-09-04T23:23:08.717Z,11.53
2018-09-04T23:25:36.444Z,11.63
2018-09-04T23:28:04.110Z,11.73
2018-09-04T23:30:31.791Z,11.68
2018-09-04T23:32:59.440Z,11.95
2018-09-04T23:35:27.134Z,11.43
2018-09-04T23:37:54.753Z,12.50
2018-09-04T23:40:22.433Z,12.40
2018-09-04T23:42:50.076Z,11.43
2018-09-04T23:45:17.718Z,11.93
2018-09-04T23:47:45.495Z,12.60
2018-09-04T23:50:13.166Z,12.60
2018-09-04T23:52:41.099Z,12.70
2018-09-04T23:55:08.721Z,12.53
2018-09-04T23:57:36.571Z,12.85
